createdAt,value
2022-11-03T12:24:35.314Z,57.00
2022-11-03T12:25:41.240Z,56.04
2022-11-03T12:26:45.524Z,56.03
2022-11-03T12:27:50.262Z,55.94
2022-11-03T12:28:54.491Z,55.25
2022-11-03T12:30:00.236Z,55.47
2022-11-03T12:31:04.875Z,54.46
2022-11-03T12:32:25.545Z,54.24
2022-11-03T12:33:33.425Z,54.52
2022-11-03T12:34:37.617Z,53.67
2022-11-03T12:35:41.845Z,54.04
2022-11-03T12:36:48.736Z,54.60
2022-11-03T12:37:56.111Z,55.21
2022-11-03T12:39:00.397Z,56.17
2022-11-03T12:40:07.395Z,55.57
2022-11-03T12:41:11.572Z,56.86
2022-11-03T12:42:15.782Z,56.63
2022-11-03T12:43:20.004Z,56.36
2022-11-03T12:44:24.375Z,55.79
2022-11-03T12:45:28.705Z,55.23
2022-11-03T12:46:32.935Z,55.15
2022-11-03T12:47:37.161Z,55.29
2022-11-03T12:48:41.365Z,54.53
2022-11-03T12:49:45.676Z,54.66
2022-11-03T12:50:49.896Z,54.24
2022-11-03T12:51:54.191Z,54.36
2022-11-03T12:52:58.475Z,54.54
2022-11-03T12:54:02.707Z,55.24
2022-11-03T12:55:09.340Z,55.50
2022-11-03T12:56:14.843Z,56.43
2022-11-03T12:57:19.049Z,56.34
2022-11-03T12:58:23.285Z,56.17
2022-11-03T12:59:27.570Z,56.58
2022-11-03T13:00:31.968Z,55.99
2022-11-03T13:01:36.395Z,55.65
2022-11-03T13:02:40.936Z,55.30
2022-11-03T13:03:45.322Z,55.27
2022-11-03T13:04:49.715Z,54.82
2022-11-03T13:05:54.207Z,54.80
2022-11-03T13:06:58.365Z,54.70
2022-11-03T13:08:02.515Z,54.62
2022-11-03T13:09:06.780Z,55.13
2022-11-03T13:10:13.046Z,55.85
2022-11-03T13:11:17.332Z,56.69
2022-11-03T13:12:21.507Z,57.61
2022-11-03T13:13:26.119Z,56.91
2022-11-03T13:14:30.341Z,57.11
2022-11-03T13:15:34.592Z,56.92
2022-11-03T13:16:38.866Z,56.88
2022-11-03T13:18:07.592Z,56.20
2022-11-03T13:19:07.633Z,56.29
2022-11-03T13:20:12.452Z,56.13
2022-11-03T13:21:16.745Z,55.55
2022-11-03T13:22:21.470Z,55.26
2022-11-03T13:23:25.841Z,55.27
2022-11-03T13:24:30.121Z,55.13
2022-11-03T13:25:36.144Z,55.70
2022-11-03T13:26:42.088Z,56.59
2022-11-03T13:27:46.347Z,56.80
2022-11-03T13:28:50.613Z,57.68
2022-11-03T13:29:54.801Z,57.62
2022-11-03T13:30:59.009Z,57.48
2022-11-03T13:32:03.328Z,56.73
2022-11-03T13:33:07.682Z,56.80
2022-11-03T13:34:12.057Z,56.54
2022-11-03T13:35:16.537Z,56.21
2022-11-03T13:36:20.969Z,55.67
2022-11-03T13:37:25.279Z,55.81
2022-11-03T13:38:29.490Z,55.31
2022-11-03T13:39:33.727Z,55.61
2022-11-03T13:40:56.424Z,56.02
2022-11-03T13:42:01.595Z,56.32
2022-11-03T13:43:06.198Z,56.46
2022-11-03T13:44:11.200Z,56.99
2022-11-03T13:45:15.486Z,57.35
2022-11-03T13:46:19.677Z,56.83
2022-11-03T13:47:34.272Z,56.79
2022-11-03T13:50:14.580Z,56.07
2022-11-03T13:51:19.615Z,56.17
2022-11-03T13:52:24.136Z,55.81
2022-11-03T13:56:21.728Z,57.15
2022-11-03T14:00:16.032Z,56.86
2022-11-03T14:01:20.546Z,56.46
2022-11-03T14:05:13.434Z,56.55
2022-11-03T14:06:17.673Z,56.16
2022-11-03T14:07:22.291Z,56.62
2022-11-03T14:08:26.482Z,57.55
2022-11-03T14:09:31.017Z,57.57
2022-11-03T14:10:35.319Z,57.67
2022-11-03T14:11:41.230Z,57.96
2022-11-03T14:12:45.529Z,57.78
2022-11-03T14:13:49.719Z,57.30
2022-11-03T14:14:53.938Z,56.32
2022-11-03T14:15:58.191Z,56.73
2022-11-03T14:17:02.463Z,56.56
2022-11-03T14:18:06.921Z,56.71
2022-11-03T14:19:11.064Z,56.28
2022-11-03T14:20:15.411Z,56.27
2022-11-03T14:21:19.647Z,56.29
2022-11-03T14:22:24.775Z,57.26
2022-11-03T14:23:29.048Z,57.10
2022-11-03T14:24:33.332Z,57.73
2022-11-03T14:25:38.294Z,58.02
2022-11-03T14:26:44.417Z,57.63
2022-11-03T14:27:48.830Z,57.47
2022-11-03T14:28:53.051Z,57.19
2022-11-03T14:29:57.279Z,56.76
2022-11-03T14:31:01.570Z,56.82
2022-11-03T14:32:06.141Z,56.88
2022-11-03T14:33:11.073Z,56.63
2022-11-03T14:34:15.609Z,56.26
2022-11-03T14:35:20.086Z,56.20
2022-11-03T14:36:24.337Z,56.15
2022-11-03T14:37:28.839Z,56.63
2022-11-03T14:38:33.559Z,57.23
2022-11-03T14:39:38.119Z,58.03
2022-11-03T14:40:42.439Z,57.46
2022-11-03T14:41:49.239Z,57.24
2022-11-03T14:42:53.514Z,57.26
2022-11-03T14:43:57.778Z,56.87
2022-11-03T14:45:01.993Z,56.90
2022-11-03T14:46:06.446Z,56.49
2022-11-03T14:47:11.929Z,56.92
2022-11-03T14:48:16.827Z,56.40
2022-11-03T14:49:21.108Z,57.00
2022-11-03T14:50:25.296Z,56.27
2022-11-03T14:51:29.887Z,56.87
2022-11-03T14:52:34.138Z,57.54
2022-11-03T14:53:38.396Z,58.22
2022-11-03T14:54:43.117Z,57.72
2022-11-03T14:55:47.424Z,57.99
2022-11-03T14:56:53.731Z,57.15
2022-11-03T14:57:58.176Z,57.28
2022-11-03T14:59:02.755Z,56.77
2022-11-03T15:00:08.169Z,56.67
2022-11-03T15:01:12.860Z,56.86
2022-11-03T15:02:17.534Z,56.57
2022-11-03T15:03:22.028Z,56.40
2022-11-03T15:04:26.867Z,56.78
2022-11-03T15:05:31.356Z,56.13
2022-11-03T15:06:35.609Z,56.62
2022-11-03T15:07:39.911Z,57.24
2022-11-03T15:08:44.297Z,57.64
2022-11-03T15:09:48.641Z,57.33
2022-11-03T15:10:52.946Z,57.70
2022-11-03T15:11:58.995Z,57.47
2022-11-03T15:13:03.257Z,57.21
2022-11-03T15:14:07.808Z,56.91
2022-11-03T15:15:12.680Z,56.93
2022-11-03T15:16:16.847Z,57.19
2022-11-03T15:17:21.213Z,57.22
2022-11-03T15:18:25.856Z,56.79
2022-11-03T15:19:30.166Z,56.58
2022-11-03T15:20:34.594Z,56.14
2022-11-03T15:21:38.808Z,56.02
2022-11-03T15:25:36.321Z,56.71
2022-11-03T15:26:40.684Z,57.22
2022-11-03T15:27:46.615Z,57.28
2022-11-03T15:28:51.040Z,57.64
2022-11-03T15:29:55.244Z,57.81
2022-11-03T15:30:59.641Z,57.10
2022-11-03T15:32:04.071Z,56.86
2022-11-03T15:33:08.513Z,56.86
2022-11-03T15:34:13.011Z,56.95
2022-11-03T15:35:18.144Z,56.73
2022-11-03T15:36:22.412Z,56.91
2022-11-03T15:37:27.427Z,57.13
2022-11-03T15:38:31.775Z,56.45
2022-11-03T15:39:36.051Z,56.50
2022-11-03T15:40:40.355Z,56.85
2022-11-03T15:41:44.681Z,57.17
2022-11-03T15:42:50.650Z,56.80
2022-11-03T15:43:54.863Z,57.75
2022-11-03T15:44:59.042Z,57.60
2022-11-03T15:46:03.267Z,58.28
2022-11-03T15:47:07.522Z,58.08
2022-11-03T15:48:12.058Z,57.30
2022-11-03T15:49:16.554Z,57.64
2022-11-03T15:50:20.975Z,57.58
2022-11-03T15:51:25.379Z,57.95
2022-11-03T15:52:29.680Z,57.62
2022-11-03T15:53:33.976Z,57.62
2022-11-03T15:54:42.404Z,57.56
2022-11-03T15:55:47.013Z,58.00
2022-11-03T15:56:51.617Z,58.38
2022-11-03T15:57:57.570Z,58.71
2022-11-03T15:59:01.750Z,58.48
2022-11-03T16:00:07.362Z,58.12
2022-11-03T16:01:11.663Z,57.68
2022-11-03T16:02:35.446Z,57.33
2022-11-03T16:03:40.189Z,57.54
2022-11-03T16:04:44.501Z,57.65
2022-11-03T16:05:48.701Z,57.53
2022-11-03T16:07:08.871Z,57.25
2022-11-03T16:08:13.402Z,57.15
2022-11-03T16:09:17.669Z,57.01
2022-11-03T16:10:21.932Z,57.02
2022-11-03T16:11:26.232Z,56.76
2022-11-03T16:12:30.537Z,56.52
2022-11-03T16:13:36.537Z,57.17
2022-11-03T16:14:40.899Z,57.31
2022-11-03T16:15:45.148Z,57.71
2022-11-03T16:16:49.361Z,58.13
2022-11-03T16:17:53.891Z,57.92
2022-11-03T16:18:58.106Z,58.32
2022-11-03T16:20:02.414Z,58.07
2022-11-03T16:21:06.838Z,58.07
2022-11-03T16:22:11.034Z,57.98
2022-11-03T16:23:15.328Z,57.75
2022-11-03T16:24:19.602Z,58.16
2022-11-03T16:25:25.112Z,57.82
2022-11-03T16:26:29.282Z,57.25
2022-11-03T16:27:33.528Z,57.05
2022-11-03T16:28:39.453Z,57.22
2022-11-03T16:29:43.667Z,57.75
2022-11-03T16:30:53.833Z,58.75
2022-11-03T16:31:58.657Z,59.29
2022-11-03T16:33:02.950Z,58.96
2022-11-03T16:34:07.154Z,58.42
2022-11-03T16:35:11.549Z,58.38
2022-11-03T16:36:15.956Z,57.40
2022-11-03T16:37:20.134Z,57.41
2022-11-03T16:38:24.372Z,57.45
2022-11-03T16:39:28.688Z,57.45
2022-11-03T16:40:32.934Z,57.55
2022-11-03T16:41:37.515Z,56.87
2022-11-03T16:42:41.757Z,56.58
2022-11-03T16:43:47.779Z,56.24
2022-11-03T16:44:52.009Z,56.14
2022-11-03T16:45:57.293Z,56.02
2022-11-03T16:47:01.809Z,56.74
2022-11-03T16:48:07.173Z,57.05
2022-11-03T16:49:12.023Z,57.48
2022-11-03T16:50:16.920Z,57.09
2022-11-03T16:51:21.195Z,57.25
2022-11-03T16:52:25.503Z,56.67
2022-11-03T16:53:29.699Z,56.64
2022-11-03T16:54:33.904Z,56.84
2022-11-03T16:55:38.076Z,56.49
2022-11-03T16:56:42.327Z,56.72
2022-11-03T16:57:47.031Z,56.00
2022-11-03T16:58:52.951Z,56.21
2022-11-03T16:59:57.197Z,56.81
2022-11-03T17:01:02.006Z,57.36
2022-11-03T17:02:06.324Z,57.79
2022-11-03T17:03:11.032Z,57.84
2022-11-03T17:04:15.217Z,57.35
2022-11-03T17:05:19.794Z,57.11
2022-11-03T17:06:24.198Z,56.84
2022-11-03T17:07:28.487Z,56.90
2022-11-03T17:08:51.764Z,56.41
2022-11-03T17:09:56.881Z,56.15
2022-11-03T17:11:01.164Z,56.03
2022-11-03T17:12:05.606Z,56.13
2022-11-03T17:13:10.352Z,55.66
2022-11-03T17:14:16.477Z,55.96
2022-11-03T17:15:20.874Z,55.19
2022-11-03T17:16:25.119Z,55.25
2022-11-03T17:17:29.362Z,55.02
2022-11-03T17:18:33.601Z,54.44
2022-11-03T17:19:37.859Z,54.52
2022-11-03T17:20:42.113Z,54.08
2022-11-03T17:21:47.385Z,54.10
2022-11-03T17:22:51.602Z,53.78
2022-11-03T17:23:55.896Z,53.83
2022-11-03T17:25:01.771Z,53.69
2022-11-03T17:26:06.267Z,53.96
2022-11-03T17:27:16.048Z,54.13
2022-11-03T17:28:20.402Z,54.01
2022-11-03T17:29:35.057Z,53.50
2022-11-03T17:30:41.341Z,53.98
2022-11-03T17:31:45.755Z,53.50
2022-11-03T17:32:54.643Z,53.78
2022-11-03T17:33:59.020Z,53.74
2022-11-03T17:35:03.785Z,53.83
2022-11-03T17:36:08.579Z,53.40
2022-11-03T17:37:12.941Z,53.45
2022-11-03T17:38:18.487Z,53.57
2022-11-03T17:39:29.356Z,53.29
2022-11-03T17:40:34.019Z,53.54
2022-11-03T17:41:38.270Z,53.35
2022-11-03T17:42:42.724Z,53.22
2022-11-03T17:43:47.147Z,53.20
2022-11-03T17:44:54.973Z,53.12
2022-11-03T17:45:59.285Z,53.02
2022-11-03T17:47:03.585Z,53.00
2022-11-03T17:48:07.768Z,53.20
2022-11-03T17:49:12.081Z,53.27
2022-11-03T17:50:17.677Z,53.16
2022-11-03T17:51:21.909Z,53.01
2022-11-03T17:52:28.899Z,53.13
2022-11-03T17:53:34.567Z,52.80
2022-11-03T17:54:38.888Z,52.93
2022-11-03T17:55:43.177Z,52.85
2022-11-03T17:56:47.446Z,53.03
2022-11-03T17:57:51.794Z,52.64
2022-11-03T17:58:56.071Z,52.70
2022-11-03T18:00:04.548Z,52.59
2022-11-03T18:01:09.104Z,52.61
2022-11-03T18:02:16.565Z,52.53
2022-11-03T18:03:20.859Z,52.65
2022-11-03T18:04:25.040Z,52.53
2022-11-03T18:05:29.910Z,52.72
2022-11-03T18:06:34.145Z,52.48
2022-11-03T18:07:38.616Z,52.44
2022-11-03T18:08:42.855Z,52.27
2022-11-03T18:09:47.128Z,52.40
2022-11-03T18:10:54.102Z,52.46
2022-11-03T18:11:58.292Z,52.60
2022-11-03T18:13:05.282Z,52.37
2022-11-03T18:14:09.761Z,52.36
2022-11-03T18:15:20.004Z,52.54
2022-11-03T18:16:24.577Z,52.32
2022-11-03T18:17:28.851Z,52.18
2022-11-03T18:18:36.138Z,52.25
2022-11-03T18:19:40.415Z,52.35
2022-11-03T18:20:52.894Z,52.28
2022-11-03T18:21:57.950Z,52.35
2022-11-03T18:23:14.868Z,52.44
2022-11-03T18:24:20.967Z,52.08
2022-11-03T18:25:26.226Z,52.40
2022-11-03T18:26:30.468Z,52.38
2022-11-03T18:27:34.757Z,52.07
2022-11-03T18:28:38.960Z,52.24
2022-11-03T18:29:43.210Z,52.19
2022-11-03T18:30:52.026Z,52.77
2022-11-03T18:31:56.921Z,52.25
2022-11-03T18:33:01.417Z,52.55
2022-11-03T18:34:07.502Z,52.16
2022-11-03T18:35:18.058Z,52.14
2022-11-03T18:36:22.409Z,52.04
2022-11-03T18:37:26.618Z,52.02
2022-11-03T18:38:31.256Z,51.98
2022-11-03T18:39:35.531Z,52.00
2022-11-03T18:40:40.016Z,52.05
2022-11-03T18:41:44.256Z,52.06
2022-11-03T18:42:48.530Z,52.16
2022-11-03T18:43:52.772Z,52.06
2022-11-03T18:45:01.494Z,52.13
2022-11-03T18:46:09.526Z,52.25
2022-11-03T18:47:13.739Z,52.02
2022-11-03T18:48:18.860Z,51.85
2022-11-03T18:49:23.833Z,52.22
2022-11-03T18:50:28.169Z,52.09
2022-11-03T18:51:32.952Z,52.05
2022-11-03T18:52:41.068Z,51.94
2022-11-03T18:53:45.362Z,52.07
2022-11-03T18:54:50.350Z,51.96
2022-11-03T18:55:58.725Z,51.98
2022-11-03T18:57:03.597Z,52.08
2022-11-03T18:58:10.477Z,51.65
2022-11-03T18:59:23.387Z,51.89
2022-11-03T19:00:27.542Z,52.01
2022-11-03T19:01:33.574Z,51.99
2022-11-03T19:02:38.149Z,52.09
2022-11-03T19:03:42.364Z,51.89
2022-11-03T19:04:46.838Z,51.84
2022-11-03T19:05:52.507Z,51.96
2022-11-03T19:06:57.350Z,51.82
2022-11-03T19:08:03.334Z,51.77
2022-11-03T19:09:07.588Z,51.84
2022-11-03T19:10:14.611Z,51.80
2022-11-03T19:11:18.872Z,51.92
2022-11-03T19:12:23.331Z,51.83
2022-11-03T19:13:30.957Z,51.96
2022-11-03T19:14:38.561Z,52.00
2022-11-03T19:15:43.012Z,51.87
2022-11-03T19:17:08.792Z,51.96
2022-11-03T19:18:13.997Z,51.89
2022-11-03T19:19:18.350Z,51.93
2022-11-03T19:20:25.635Z,51.77
2022-11-03T19:21:29.943Z,51.99
2022-11-03T19:22:34.207Z,51.89
2022-11-03T19:23:38.489Z,52.17
2022-11-03T19:24:43.112Z,51.61
2022-11-03T19:25:49.113Z,52.11
2022-11-03T19:26:57.572Z,52.10
2022-11-03T19:28:02.194Z,51.75
2022-11-03T19:29:10.369Z,51.86
2022-11-03T19:30:16.896Z,51.75
2022-11-03T19:31:24.847Z,51.79
2022-11-03T19:32:34.517Z,51.79
2022-11-03T19:33:40.121Z,51.80
2022-11-03T19:34:44.625Z,51.85
2022-11-03T19:35:49.349Z,51.73
2022-11-03T19:36:54.355Z,51.78
2022-11-03T19:38:02.376Z,51.66
2022-11-03T19:39:20.994Z,51.29
2022-11-03T19:40:25.362Z,51.27
2022-11-03T19:41:29.625Z,51.02
2022-11-03T19:42:33.826Z,51.08
2022-11-03T19:43:39.166Z,51.04
2022-11-03T19:44:43.411Z,50.91
2022-11-03T19:45:47.676Z,51.07
2022-11-03T19:46:53.662Z,51.05
2022-11-03T19:49:25.007Z,51.05
2022-11-03T19:50:31.567Z,50.89
2022-11-03T19:51:35.796Z,50.98
2022-11-03T19:52:40.028Z,50.89
2022-11-03T19:53:47.107Z,51.05
2022-11-03T19:54:52.774Z,51.07
2022-11-03T19:55:57.656Z,51.08
2022-11-03T19:57:01.925Z,51.07
2022-11-03T19:58:13.378Z,51.12
2022-11-03T19:59:18.359Z,51.15
2022-11-03T20:01:39.210Z,51.18
2022-11-03T20:02:45.397Z,51.08
2022-11-03T20:03:51.361Z,51.04
2022-11-03T20:04:55.557Z,51.18
2022-11-03T20:05:59.876Z,51.11
2022-11-03T20:07:05.003Z,51.41
2022-11-03T20:08:13.833Z,51.29
2022-11-03T20:09:19.637Z,51.11
2022-11-03T20:10:23.878Z,51.20
2022-11-03T20:11:28.368Z,50.99
2022-11-03T20:12:32.797Z,50.70
2022-11-03T20:13:42.286Z,50.88
2022-11-03T20:14:46.623Z,51.11
2022-11-03T20:15:53.585Z,51.19
2022-11-03T20:17:04.865Z,51.02
2022-11-03T20:18:12.253Z,51.09
2022-11-03T20:19:18.075Z,51.12
2022-11-03T20:20:24.579Z,51.16
2022-11-03T20:21:34.027Z,51.18
2022-11-03T20:22:41.027Z,51.22
2022-11-03T20:23:47.203Z,51.14
2022-11-03T20:24:53.137Z,51.13
2022-11-03T20:25:57.449Z,51.14
2022-11-03T20:27:01.772Z,51.21
2022-11-03T20:28:17.637Z,51.32
2022-11-03T20:29:21.931Z,51.20
2022-11-03T20:30:28.117Z,51.27
2022-11-03T20:31:32.276Z,51.36
2022-11-03T20:32:36.559Z,51.28
2022-11-03T20:33:40.907Z,51.53
2022-11-03T20:34:46.876Z,51.24
2022-11-03T20:35:52.375Z,51.13
2022-11-03T20:36:58.927Z,50.88
2022-11-03T20:38:04.608Z,51.19
2022-11-03T20:39:14.244Z,50.96
2022-11-03T20:40:20.441Z,51.28
2022-11-03T20:41:24.641Z,51.35
2022-11-03T20:42:28.916Z,51.30
2022-11-03T20:43:35.817Z,51.26
2022-11-03T20:44:40.033Z,51.17
2022-11-03T20:45:44.158Z,51.09
2022-11-03T20:46:48.288Z,51.02
2022-11-03T20:47:53.134Z,51.20
2022-11-03T20:48:57.731Z,51.16
2022-11-03T20:50:03.659Z,51.19
2022-11-03T20:51:08.026Z,51.15
2022-11-03T20:52:14.690Z,51.16
2022-11-03T20:53:20.426Z,51.50
2022-11-03T20:54:24.677Z,51.29
2022-11-03T20:55:29.292Z,51.17
2022-11-03T20:56:33.510Z,51.20
2022-11-03T20:57:39.805Z,51.33
2022-11-03T20:58:44.143Z,51.33
2022-11-03T20:59:48.471Z,51.31
2022-11-03T21:00:52.668Z,51.24
2022-11-03T21:01:57.681Z,51.49
2022-11-03T21:03:03.845Z,51.34
2022-11-03T21:04:13.889Z,51.39
2022-11-03T21:05:21.687Z,51.42
2022-11-03T21:06:26.283Z,51.39
2022-11-03T21:07:30.456Z,51.30
2022-11-03T21:08:34.806Z,51.46
2022-11-03T21:09:39.031Z,51.52
2022-11-03T21:10:43.305Z,51.54
2022-11-03T21:11:48.544Z,51.26
2022-11-03T21:12:53.785Z,51.66
2022-11-03T21:13:59.824Z,51.54
2022-11-03T21:15:04.662Z,51.50
2022-11-03T21:16:24.254Z,51.37
2022-11-03T21:17:28.962Z,51.61
2022-11-03T21:18:33.127Z,51.55
2022-11-03T21:19:37.541Z,51.75
2022-11-03T21:20:43.456Z,51.90
2022-11-03T21:21:47.708Z,51.65
2022-11-03T21:22:53.416Z,51.59
2022-11-03T21:23:58.183Z,51.67
2022-11-03T21:25:02.712Z,51.81
2022-11-03T21:26:07.548Z,51.58
2022-11-03T21:27:13.165Z,51.73
2022-11-03T21:28:17.651Z,51.75
2022-11-03T21:29:38.938Z,51.83
2022-11-03T21:30:46.746Z,51.74
2022-11-03T21:31:51.036Z,51.79
2022-11-03T21:32:55.272Z,51.57
2022-11-03T21:34:00.817Z,51.85
2022-11-03T21:35:05.195Z,51.79
2022-11-03T21:36:11.542Z,51.90
2022-11-03T21:37:16.851Z,51.92
2022-11-03T21:38:21.017Z,51.46
2022-11-03T21:39:25.351Z,51.76
2022-11-03T21:40:29.533Z,52.04
2022-11-03T21:41:33.807Z,52.07
2022-11-03T21:42:38.442Z,51.91
2022-11-03T21:43:42.611Z,51.81
2022-11-03T21:44:46.833Z,51.98
2022-11-03T21:45:51.043Z,52.33
2022-11-03T21:46:55.252Z,52.01
2022-11-03T21:47:59.526Z,51.99
2022-11-03T21:49:03.669Z,52.10
2022-11-03T21:50:08.370Z,52.15
2022-11-03T21:51:14.323Z,51.87
2022-11-03T21:52:20.042Z,52.09
2022-11-03T21:53:24.264Z,52.23
2022-11-03T21:54:28.357Z,52.17
2022-11-03T21:55:32.476Z,52.17
2022-11-03T21:56:36.601Z,51.98
2022-11-03T21:57:40.878Z,52.22
2022-11-03T21:58:45.090Z,52.05
2022-11-03T21:59:49.283Z,52.30
2022-11-03T22:00:53.490Z,52.20
2022-11-03T22:01:58.166Z,52.29
2022-11-03T22:03:03.446Z,52.22
2022-11-03T22:04:07.625Z,52.10
2022-11-03T22:05:12.139Z,52.33
2022-11-03T22:06:17.981Z,52.60
2022-11-03T22:07:22.354Z,52.37
2022-11-03T22:08:26.630Z,52.50
2022-11-03T22:09:30.818Z,52.27
2022-11-03T22:10:35.039Z,52.54
2022-11-03T22:11:39.233Z,52.26
2022-11-03T22:12:43.495Z,52.46
2022-11-03T22:13:47.767Z,52.27
2022-11-03T22:14:52.027Z,52.25
2022-11-03T22:15:56.276Z,52.33
2022-11-03T22:18:09.456Z,52.44
2022-11-03T22:19:15.071Z,52.14
2022-11-03T22:20:19.254Z,52.18
2022-11-03T22:21:25.110Z,52.30
2022-11-03T22:22:29.277Z,52.20
2022-11-03T22:23:34.241Z,52.35
2022-11-03T22:24:38.721Z,52.42
2022-11-03T22:25:43.138Z,52.30
2022-11-03T22:26:47.355Z,52.54
2022-11-03T22:27:51.456Z,52.47
2022-11-03T22:28:55.632Z,52.18
2022-11-03T22:30:00.747Z,52.37
2022-11-03T22:31:05.687Z,52.25
2022-11-03T22:32:15.321Z,52.29
2022-11-03T22:33:19.543Z,52.15
2022-11-03T22:34:23.891Z,52.28
2022-11-03T22:35:28.143Z,52.31
2022-11-03T22:36:34.084Z,52.29
2022-11-03T22:38:40.674Z,52.19
2022-11-03T22:39:44.896Z,52.31
2022-11-03T22:40:49.386Z,52.32
2022-11-03T22:41:53.876Z,52.36
2022-11-03T22:43:01.511Z,52.11
2022-11-03T22:44:06.335Z,52.34
2022-11-03T22:45:11.646Z,52.46
2022-11-03T22:46:17.051Z,52.19
2022-11-03T22:47:21.361Z,52.27
2022-11-03T22:48:26.695Z,52.35
2022-11-03T22:49:31.093Z,52.47
2022-11-03T22:50:35.336Z,52.68
2022-11-03T22:51:41.350Z,52.47
2022-11-03T22:52:45.603Z,52.20
2022-11-03T22:53:49.799Z,52.31
2022-11-03T22:54:53.992Z,52.50
2022-11-03T22:56:00.318Z,52.35
2022-11-03T22:57:04.551Z,52.38
2022-11-03T22:58:08.746Z,52.36
2022-11-03T22:59:12.918Z,52.59
2022-11-03T23:00:17.639Z,52.32
2022-11-03T23:01:23.521Z,52.33
2022-11-03T23:02:28.252Z,52.23
2022-11-03T23:03:34.347Z,52.39
2022-11-03T23:04:38.516Z,52.20
2022-11-03T23:05:42.708Z,52.29
2022-11-03T23:06:48.522Z,52.46
2022-11-03T23:07:52.708Z,52.20
2022-11-03T23:08:57.734Z,52.46
2022-11-03T23:10:02.269Z,52.41
2022-11-03T23:11:08.750Z,52.15
2022-11-03T23:12:12.979Z,52.06
2022-11-03T23:13:17.129Z,52.31
2022-11-03T23:14:21.339Z,52.22
2022-11-03T23:15:25.561Z,52.70
2022-11-03T23:16:31.884Z,52.22
2022-11-03T23:17:36.701Z,52.47
2022-11-03T23:18:41.030Z,52.48
2022-11-03T23:19:45.231Z,52.19
2022-11-03T23:20:50.059Z,52.78
2022-11-03T23:21:56.241Z,52.32
2022-11-03T23:23:00.407Z,52.28
2022-11-03T23:24:05.880Z,52.49
2022-11-03T23:25:10.471Z,52.34
2022-11-03T23:26:14.720Z,52.28
2022-11-03T23:27:18.865Z,52.39
2022-11-03T23:28:23.110Z,52.24
2022-11-03T23:29:27.642Z,52.28
2022-11-03T23:30:31.798Z,52.56
2022-11-03T23:31:37.396Z,52.25
2022-11-03T23:32:41.639Z,51.76
2022-11-03T23:33:45.863Z,52.48
2022-11-03T23:34:50.048Z,52.42
2022-11-03T23:35:54.180Z,52.34
2022-11-03T23:37:00.233Z,52.55
2022-11-03T23:38:04.424Z,52.24
2022-11-03T23:39:09.048Z,52.33
2022-11-03T23:40:17.268Z,52.26
2022-11-03T23:41:25.083Z,52.17
2022-11-03T23:42:29.320Z,52.60
2022-11-03T23:43:33.647Z,52.20
2022-11-03T23:44:37.863Z,52.44
2022-11-03T23:45:42.096Z,52.06
2022-11-03T23:46:46.639Z,52.35
2022-11-03T23:47:50.905Z,52.50
2022-11-03T23:48:55.197Z,52.51
2022-11-03T23:49:59.374Z,52.22
2022-11-03T23:51:03.565Z,52.24
2022-11-03T23:52:09.540Z,52.45
2022-11-03T23:53:13.726Z,52.09
2022-11-03T23:54:17.922Z,52.31
2022-11-03T23:55:22.200Z,52.49
2022-11-03T23:56:28.119Z,52.03
2022-11-03T23:57:32.348Z,52.04
2022-11-03T23:58:36.928Z,52.06
2022-11-03T23:59:41.144Z,52.00
